Enter the Airport ICAO Code

Search by Airport or City

Current Weather

SKRG | José María Córdova International Airport

Medellín, Colombia

Last Update 54 Minutes Ago

Partly Cloudy Sky

Temperature of 21 ºC

Light Winds from Variable Directions

Temperature

21 ºC

Dew Point Temperature

13 ºC

Relative Humidity

60.4 %

Wind Direction

Variable

Wind Velocity

4 km/h (02 kt)

Gusts

None

Visibility

Greater than 10 Kilometers

Sea Level Pressure

30.24 inHg (Inches of Mercury)

Layers of Clouds

5% to 30% of Sky Covered from 610 mts (2000 ft) Above Ground Level.

30% to 60% of Sky Covered from 6096 mts (20000 ft) Above Ground Level.

METAR SKRG 121500Z VRB02KT 9999 FEW020 SCT200 21/13 A3024 NOSIG

Weather Forecast

SKRG | José María Córdova International Airport

Medellín, Colombia

Forecast valid for the next 20 Hours

From now on it is expected:

Partly Cloudy Sky

Moderate Winds from East

In 4 hours it is expected the begining of 3 hours with intermittent periods of:

Thunderstorm

In 8 to 10 hours it is expected the begining of:

Light Winds from Variable Directions

In 10 hours it is expected the begining of 4 hours with intermittent periods of:

Rain

Maximum Temperature

No Data

Minimum Temperature

No Data

TAF SKRG 121030Z 1212/1312 VRB02KT 9999 SCT010 BECMG 1213/1215 10010KT SCT020 TEMPO 1220/1223 TS SCT020CB BECMG 1300/1302 VRB02KT SCT012 SCT080 PROB40 TEMPO 1302/1306 RA BKN010CB TX23/1219Z TN13/1311Z